createdAt,value
2023-02-16T00:00:33.873Z,3.13
2023-02-16T00:03:00.603Z,7.88
2023-02-16T00:05:33.646Z,2.17
2023-02-16T00:08:01.467Z,6.63
2023-02-16T00:10:35.543Z,2.00
2023-02-16T00:13:21.771Z,3.13
2023-02-16T00:15:48.540Z,2.30
2023-02-16T00:18:20.696Z,4.10
2023-02-16T00:20:49.001Z,4.35
2023-02-16T00:23:16.184Z,5.13
2023-02-16T00:25:42.997Z,3.58
2023-02-16T00:28:19.514Z,3.67
2023-02-16T00:30:46.732Z,2.50
2023-02-16T00:33:19.054Z,2.13
2023-02-16T00:38:13.696Z,1.77
2023-02-16T00:40:42.102Z,1.10
2023-02-16T00:43:21.908Z,0.85
2023-02-16T00:45:48.713Z,1.67
2023-02-16T00:48:15.433Z,1.13
2023-02-16T00:50:42.182Z,1.45
2023-02-16T00:53:08.938Z,2.58
2023-02-16T00:55:37.219Z,0.57
2023-02-16T00:58:26.866Z,1.90
2023-02-16T01:01:21.233Z,2.10
2023-02-16T01:03:48.293Z,1.15
2023-02-16T01:06:33.698Z,2.38
2023-02-16T01:09:31.608Z,1.15
2023-02-16T01:11:58.557Z,1.58
2023-02-16T01:14:26.239Z,2.70
2023-02-16T01:16:53.396Z,1.23
2023-02-16T01:19:21.394Z,3.35
2023-02-16T01:21:48.214Z,1.80
2023-02-16T01:24:15.211Z,1.75
2023-02-16T01:26:49.167Z,1.08
2023-02-16T01:29:18.601Z,0.60
2023-02-16T01:31:45.903Z,2.78
2023-02-16T01:34:13.452Z,1.08
2023-02-16T01:36:44.529Z,0.20
2023-02-16T01:39:19.034Z,0.20
2023-02-16T01:41:54.815Z,0.57
2023-02-16T01:44:25.802Z,0.35
2023-02-16T01:46:59.105Z,0.10
2023-02-16T01:49:25.896Z,0.10
2023-02-16T01:51:52.797Z,0.20
2023-02-16T01:54:32.974Z,0.30
2023-02-16T01:57:27.489Z,1.23
2023-02-16T01:59:54.248Z,0.10
2023-02-16T02:02:39.662Z,0.00
2023-02-16T02:05:38.117Z,0.20
2023-02-16T02:08:10.070Z,0.22
2023-02-16T02:11:16.422Z,0.10
2023-02-16T02:13:53.766Z,2.88
2023-02-16T02:16:22.248Z,0.35
2023-02-16T02:18:49.483Z,0.20
2023-02-16T02:21:53.817Z,0.17
2023-02-16T02:24:26.334Z,0.35
2023-02-16T02:27:02.160Z,1.25
2023-02-16T02:29:59.830Z,1.92
2023-02-16T02:32:52.514Z,0.10
2023-02-16T02:35:44.636Z,0.15
2023-02-16T02:38:17.394Z,0.90
2023-02-16T02:41:40.642Z,0.40
2023-02-16T02:44:09.982Z,0.43
2023-02-16T02:46:38.576Z,0.32
2023-02-16T02:49:05.495Z,0.70
2023-02-16T02:51:33.985Z,0.75
2023-02-16T02:54:30.316Z,0.47
2023-02-16T02:57:31.771Z,0.60
2023-02-16T03:02:58.586Z,0.65
2023-02-16T03:05:29.361Z,0.73
2023-02-16T03:08:06.579Z,1.73
2023-02-16T03:10:55.843Z,0.75
2023-02-16T03:13:30.479Z,0.60
2023-02-16T03:15:59.251Z,1.00
2023-02-16T03:18:46.786Z,0.68
2023-02-16T03:21:33.699Z,0.60
2023-02-16T03:24:26.283Z,1.00
2023-02-16T03:29:39.949Z,3.60
2023-02-16T03:32:06.897Z,0.95
2023-02-16T03:34:36.370Z,1.55
2023-02-16T03:37:04.955Z,0.80
2023-02-16T03:39:32.585Z,1.05
2023-02-16T03:41:59.363Z,0.85
2023-02-16T03:44:26.145Z,0.77
2023-02-16T03:46:52.884Z,0.88
2023-02-16T03:49:20.670Z,1.85
2023-02-16T03:51:47.781Z,1.48
2023-02-16T03:54:14.764Z,1.67
2023-02-16T03:56:41.539Z,2.00
2023-02-16T03:59:08.452Z,5.93
2023-02-16T04:01:35.278Z,1.38
2023-02-16T04:04:02.048Z,2.50
2023-02-16T04:06:28.851Z,1.73
2023-02-16T04:08:55.570Z,2.38
2023-02-16T04:11:40.949Z,1.63
2023-02-16T04:14:08.484Z,0.95
2023-02-16T04:16:35.234Z,2.88
2023-02-16T04:19:02.021Z,3.03
2023-02-16T04:21:28.766Z,1.67
2023-02-16T04:23:55.517Z,1.50
2023-02-16T04:26:22.242Z,1.42
2023-02-16T04:28:49.486Z,1.13
2023-02-16T04:31:16.298Z,2.05
2023-02-16T04:33:43.096Z,1.23
2023-02-16T04:36:10.250Z,1.65
2023-02-16T04:38:36.997Z,3.63
2023-02-16T04:41:04.069Z,1.73
2023-02-16T04:43:31.011Z,1.35
2023-02-16T04:45:57.988Z,1.15
2023-02-16T04:48:24.790Z,2.70
2023-02-16T04:50:51.530Z,1.45
2023-02-16T04:53:18.402Z,3.17
2023-02-16T04:55:48.365Z,2.33
2023-02-16T04:58:16.140Z,2.13
2023-02-16T05:00:43.114Z,1.83
2023-02-16T05:03:09.897Z,1.58
2023-02-16T05:05:36.777Z,2.28
2023-02-16T05:08:04.172Z,1.73
2023-02-16T05:10:30.917Z,1.90
2023-02-16T05:13:16.108Z,1.17
2023-02-16T05:15:43.156Z,0.80
2023-02-16T05:18:10.013Z,1.08
2023-02-16T05:20:55.372Z,1.10
2023-02-16T05:23:22.097Z,2.30
2023-02-16T05:25:48.819Z,0.60
2023-02-16T05:28:15.603Z,0.88
2023-02-16T05:30:42.407Z,0.60
2023-02-16T05:33:09.200Z,1.17
2023-02-16T05:35:35.944Z,1.08
2023-02-16T05:38:02.743Z,0.70
2023-02-16T05:40:29.476Z,2.58
2023-02-16T05:42:56.178Z,2.42
2023-02-16T05:45:22.948Z,2.13
2023-02-16T05:47:49.716Z,1.95
2023-02-16T05:50:16.541Z,2.13
2023-02-16T05:52:43.303Z,2.42
2023-02-16T05:55:10.159Z,2.63
2023-02-16T05:57:36.866Z,4.45
2023-02-16T06:00:05.283Z,2.00
2023-02-16T06:02:32.173Z,4.18
2023-02-16T06:04:58.905Z,2.72
2023-02-16T06:07:25.641Z,1.70
2023-02-16T06:09:52.432Z,1.40
2023-02-16T06:12:19.165Z,2.03
2023-02-16T06:14:45.888Z,2.47
2023-02-16T06:17:12.668Z,1.50
2023-02-16T06:19:39.427Z,1.42
2023-02-16T06:22:06.177Z,3.55
2023-02-16T06:24:32.944Z,1.30
2023-02-16T06:26:59.724Z,1.50
2023-02-16T06:29:26.686Z,1.13
2023-02-16T06:31:53.705Z,1.02
2023-02-16T06:34:20.568Z,1.33
2023-02-16T06:36:47.329Z,1.52
2023-02-16T06:39:14.067Z,0.98
2023-02-16T06:41:40.940Z,2.42
2023-02-16T06:44:13.776Z,2.00
2023-02-16T06:46:41.923Z,1.67
2023-02-16T06:49:16.889Z,1.13
2023-02-16T06:51:44.483Z,1.83
2023-02-16T06:54:11.322Z,1.77
2023-02-16T06:56:38.188Z,2.97
2023-02-16T06:59:05.368Z,4.75
2023-02-16T07:01:32.520Z,3.45
2023-02-16T07:03:59.811Z,5.05
2023-02-16T07:06:29.279Z,4.05
2023-02-16T07:08:56.579Z,6.57
2023-02-16T07:11:23.515Z,4.25
2023-02-16T07:13:50.967Z,4.60
2023-02-16T07:16:17.790Z,5.25
2023-02-16T07:18:46.269Z,5.95
2023-02-16T07:21:13.279Z,9.02
2023-02-16T07:23:40.063Z,5.40
2023-02-16T07:26:06.919Z,5.25
2023-02-16T07:28:33.627Z,4.28
2023-02-16T07:31:07.497Z,4.05
2023-02-16T07:33:34.406Z,4.03
2023-02-16T07:36:01.140Z,2.95
2023-02-16T07:38:27.923Z,2.38
2023-02-16T07:40:54.653Z,2.05
2023-02-16T07:43:21.387Z,1.10
2023-02-16T07:45:49.326Z,2.17
2023-02-16T07:48:17.626Z,1.70
2023-02-16T07:50:44.429Z,2.15
2023-02-16T07:53:12.901Z,1.15
2023-02-16T07:55:44.329Z,1.90
2023-02-16T07:58:11.777Z,2.67
2023-02-16T08:00:39.080Z,1.33
2023-02-16T08:03:06.110Z,2.45
2023-02-16T08:05:35.373Z,7.32
2023-02-16T08:08:02.110Z,0.65
2023-02-16T08:10:28.964Z,1.65
2023-02-16T08:12:55.705Z,1.10
2023-02-16T08:15:22.448Z,0.60
2023-02-16T08:17:49.674Z,0.60
2023-02-16T08:20:16.376Z,1.45
2023-02-16T08:22:43.700Z,1.10
2023-02-16T08:25:11.737Z,1.30
2023-02-16T08:27:38.437Z,2.08
2023-02-16T08:30:05.956Z,2.45
2023-02-16T08:32:32.760Z,2.40
2023-02-16T08:34:59.481Z,1.83
2023-02-16T08:37:26.314Z,1.75
2023-02-16T08:39:53.937Z,1.33
2023-02-16T08:42:21.340Z,1.85
2023-02-16T08:44:48.202Z,1.85
2023-02-16T08:47:16.926Z,2.20
2023-02-16T08:49:44.603Z,1.67
2023-02-16T08:52:12.444Z,2.78
2023-02-16T08:54:39.919Z,3.92
2023-02-16T08:57:06.634Z,7.97
2023-02-16T08:59:34.991Z,5.72
2023-02-16T09:02:02.338Z,6.53
2023-02-16T09:04:29.690Z,5.90
2023-02-16T09:06:58.474Z,5.18
2023-02-16T09:09:26.562Z,4.78
2023-02-16T09:11:53.701Z,5.13
2023-02-16T09:14:21.691Z,4.85
2023-02-16T09:16:48.838Z,4.00
2023-02-16T09:19:19.112Z,7.03
2023-02-16T09:21:47.522Z,9.70
2023-02-16T09:24:16.063Z,9.15
2023-02-16T09:26:43.103Z,7.10
2023-02-16T09:29:12.655Z,6.75
2023-02-16T09:31:40.463Z,5.75
2023-02-16T09:34:20.217Z,7.07
2023-02-16T09:36:47.760Z,7.93
2023-02-16T09:39:16.580Z,7.80
2023-02-16T09:42:05.272Z,7.57
2023-02-16T09:44:50.445Z,5.38
2023-02-16T09:47:25.821Z,4.60
2023-02-16T09:49:56.964Z,6.97
2023-02-16T09:52:37.657Z,6.65
2023-02-16T09:55:14.553Z,5.28
2023-02-16T09:58:00.024Z,4.57
2023-02-16T10:00:53.914Z,5.50
2023-02-16T10:03:26.622Z,8.50
2023-02-16T10:06:17.208Z,7.30
2023-02-16T10:09:04.300Z,5.65
2023-02-16T10:11:48.897Z,3.58
2023-02-16T10:14:41.395Z,2.90
2023-02-16T10:17:34.290Z,2.30
2023-02-16T10:20:16.275Z,1.38
2023-02-16T10:23:10.542Z,1.70
2023-02-16T10:25:48.864Z,2.00
2023-02-16T10:28:20.282Z,3.10
2023-02-16T10:31:06.067Z,2.97
2023-02-16T10:33:38.738Z,4.78
2023-02-16T10:36:28.476Z,5.05
2023-02-16T10:39:07.560Z,5.63
2023-02-16T10:41:42.916Z,5.88
2023-02-16T10:44:24.323Z,4.47
2023-02-16T10:47:04.580Z,5.73
2023-02-16T10:49:32.823Z,2.97
2023-02-16T10:52:03.699Z,5.72
2023-02-16T10:54:32.796Z,3.35
2023-02-16T10:57:04.268Z,3.83
2023-02-16T10:59:31.050Z,3.65
2023-02-16T11:02:00.306Z,3.45
2023-02-16T11:04:42.738Z,4.07
2023-02-16T11:09:41.424Z,3.75
2023-02-16T11:12:32.558Z,3.38
2023-02-16T11:15:22.243Z,6.65
2023-02-16T11:17:48.895Z,4.78
2023-02-16T11:20:45.229Z,6.65
2023-02-16T11:23:25.753Z,7.03
2023-02-16T11:26:00.390Z,7.25
2023-02-16T11:28:32.418Z,5.30
2023-02-16T11:33:28.940Z,6.90
2023-02-16T11:35:56.611Z,9.38
2023-02-16T11:38:28.167Z,5.93
2023-02-16T11:40:56.524Z,4.05
2023-02-16T11:43:28.598Z,4.38
2023-02-16T11:46:17.727Z,4.53
2023-02-16T11:48:45.150Z,5.97
2023-02-16T11:51:19.307Z,5.38
2023-02-16T11:53:46.353Z,4.90
2023-02-16T11:56:24.367Z,2.40
2023-02-16T11:59:07.313Z,1.15
2023-02-16T12:02:00.701Z,1.17
2023-02-16T12:04:57.958Z,0.40
2023-02-16T12:07:37.948Z,1.92
2023-02-16T12:10:13.735Z,1.25
2023-02-16T12:12:50.842Z,0.85
2023-02-16T12:15:44.017Z,1.38
2023-02-16T12:18:31.942Z,0.47
2023-02-16T12:21:10.459Z,1.85
2023-02-16T12:23:42.880Z,0.73
2023-02-16T12:26:34.673Z,0.85
2023-02-16T12:29:16.566Z,0.65
2023-02-16T12:32:07.458Z,1.15
2023-02-16T12:35:03.594Z,0.40
2023-02-16T12:37:36.111Z,0.32
2023-02-16T12:40:12.394Z,3.25
2023-02-16T12:43:01.185Z,0.70
2023-02-16T12:45:33.418Z,2.75
2023-02-16T12:50:35.315Z,1.15
2023-02-16T12:53:14.255Z,1.63
2023-02-16T12:55:51.120Z,0.80
2023-02-16T12:58:23.836Z,1.95
2023-02-16T13:01:00.190Z,3.50
2023-02-16T13:03:58.663Z,4.18
2023-02-16T13:06:29.951Z,1.02
2023-02-16T13:09:15.452Z,1.27
2023-02-16T13:11:55.763Z,3.08
2023-02-16T13:14:27.855Z,3.00
2023-02-16T13:16:59.395Z,6.40
2023-02-16T13:19:27.093Z,1.85
2023-02-16T13:21:53.883Z,0.80
2023-02-16T13:24:33.882Z,2.83
2023-02-16T13:27:16.258Z,1.20
2023-02-16T13:32:34.282Z,1.35
2023-02-16T13:35:08.126Z,0.67
2023-02-16T13:37:41.054Z,3.20
2023-02-16T13:40:26.720Z,5.93
2023-02-16T13:43:11.595Z,4.93
2023-02-16T13:45:42.795Z,1.65
2023-02-16T13:48:33.470Z,1.88
2023-02-16T13:51:03.998Z,0.40
2023-02-16T13:53:38.020Z,1.10
2023-02-16T13:56:22.150Z,2.03
2023-02-16T13:58:51.001Z,0.68
2023-02-16T14:01:34.188Z,0.57
2023-02-16T14:04:02.846Z,0.43
2023-02-16T14:06:37.244Z,0.50
2023-02-16T14:09:16.170Z,0.88
2023-02-16T14:12:00.780Z,0.50
2023-02-16T14:14:36.398Z,4.65
2023-02-16T14:17:18.200Z,1.13
2023-02-16T14:20:09.077Z,0.80
2023-02-16T14:22:57.420Z,0.75
2023-02-16T14:25:24.141Z,1.00
2023-02-16T14:28:18.829Z,0.85
2023-02-16T14:31:15.125Z,0.80
2023-02-16T14:33:54.099Z,2.03
2023-02-16T14:36:26.325Z,0.95
2023-02-16T14:41:34.490Z,0.45
2023-02-16T14:44:04.229Z,1.33
2023-02-16T14:46:56.076Z,3.33
2023-02-16T14:49:49.555Z,1.83
2023-02-16T14:52:51.411Z,0.68
2023-02-16T14:55:23.134Z,1.23
2023-02-16T14:58:17.499Z,1.85
2023-02-16T15:00:46.844Z,0.40
2023-02-16T15:03:25.312Z,1.80
2023-02-16T15:06:03.957Z,1.52
2023-02-16T15:08:36.182Z,0.40
2023-02-16T15:11:16.035Z,1.67
2023-02-16T15:13:44.352Z,0.90
2023-02-16T15:16:15.522Z,0.65
2023-02-16T15:18:52.154Z,3.57
2023-02-16T15:21:28.500Z,1.45
2023-02-16T15:23:57.665Z,1.35
2023-02-16T15:26:28.388Z,2.13
2023-02-16T15:28:58.773Z,0.60
2023-02-16T15:31:37.465Z,0.45
2023-02-16T15:34:07.562Z,0.25
2023-02-16T15:36:39.793Z,3.30
2023-02-16T15:41:38.683Z,1.10
2023-02-16T15:44:13.444Z,1.15
2023-02-16T15:46:43.774Z,2.60
2023-02-16T15:49:29.934Z,2.70
2023-02-16T15:51:57.908Z,1.48
2023-02-16T15:54:35.650Z,3.17
2023-02-16T15:57:32.900Z,1.13
2023-02-16T16:00:04.212Z,3.08
2023-02-16T16:02:39.832Z,2.37
2023-02-16T16:05:10.053Z,2.00
2023-02-16T16:07:42.600Z,0.70
2023-02-16T16:10:35.712Z,2.80
2023-02-16T16:13:06.837Z,1.88
2023-02-16T16:15:40.114Z,0.70
2023-02-16T16:18:26.902Z,5.80
2023-02-16T16:21:00.881Z,0.77
2023-02-16T16:23:28.481Z,1.55
2023-02-16T16:25:55.918Z,2.25
2023-02-16T16:28:28.499Z,0.52
2023-02-16T16:31:17.993Z,0.57
2023-02-16T16:34:02.874Z,1.00
2023-02-16T16:36:36.872Z,1.15
2023-02-16T16:39:19.091Z,1.52
2023-02-16T16:44:36.425Z,1.45
2023-02-16T16:47:33.732Z,1.63
2023-02-16T16:50:11.714Z,2.58
2023-02-16T16:52:49.717Z,1.77
2023-02-16T16:55:28.130Z,1.65
2023-02-16T16:58:06.386Z,2.85
2023-02-16T17:00:36.067Z,2.20
2023-02-16T17:03:05.388Z,1.38
2023-02-16T17:05:33.184Z,1.55
2023-02-16T17:08:00.469Z,1.75
2023-02-16T17:10:28.309Z,2.13
2023-02-16T17:12:59.897Z,1.92
2023-02-16T17:15:29.489Z,2.20
2023-02-16T17:17:57.083Z,1.90
2023-02-16T17:20:24.381Z,5.43
2023-02-16T17:22:51.786Z,1.98
2023-02-16T17:25:19.044Z,2.15
2023-02-16T17:27:45.768Z,1.00
2023-02-16T17:30:13.407Z,2.42
2023-02-16T17:32:40.310Z,1.48
2023-02-16T17:35:07.480Z,1.48
2023-02-16T17:37:35.667Z,0.93
2023-02-16T17:40:09.708Z,1.17
2023-02-16T17:42:37.276Z,1.95
2023-02-16T17:45:04.508Z,2.30
2023-02-16T17:47:31.303Z,1.27
2023-02-16T17:49:58.043Z,0.95
2023-02-16T17:52:25.326Z,0.82
2023-02-16T17:54:52.163Z,3.58
2023-02-16T17:57:19.218Z,1.77
2023-02-16T17:59:48.564Z,3.90
2023-02-16T18:02:15.447Z,2.38
2023-02-16T18:04:42.279Z,2.67
2023-02-16T18:07:14.117Z,1.92
2023-02-16T18:09:40.909Z,2.20
2023-02-16T18:12:08.251Z,3.72
2023-02-16T18:14:36.188Z,3.80
2023-02-16T18:17:04.461Z,3.17
2023-02-16T18:19:33.331Z,4.53
2023-02-16T18:22:00.724Z,2.28
2023-02-16T18:24:27.733Z,1.92
2023-02-16T18:26:55.577Z,1.00
2023-02-16T18:29:22.408Z,1.30
2023-02-16T18:31:49.316Z,2.05
2023-02-16T18:34:16.161Z,2.22
2023-02-16T18:36:42.994Z,3.00
2023-02-16T18:39:10.264Z,1.63
2023-02-16T18:41:37.355Z,2.55
2023-02-16T18:44:05.525Z,2.63
2023-02-16T18:46:32.516Z,2.15
2023-02-16T18:48:59.293Z,1.80
2023-02-16T18:51:31.038Z,1.23
2023-02-16T18:53:58.838Z,2.28
2023-02-16T18:56:25.883Z,2.40
2023-02-16T18:58:53.364Z,5.65
2023-02-16T19:01:29.650Z,3.88
2023-02-16T19:03:57.117Z,1.65
2023-02-16T19:06:24.778Z,2.88
2023-02-16T19:08:51.925Z,5.35
2023-02-16T19:11:19.816Z,3.60
2023-02-16T19:13:48.490Z,3.72
2023-02-16T19:16:16.465Z,3.97
2023-02-16T19:18:43.405Z,1.73
2023-02-16T19:21:13.330Z,2.00
2023-02-16T19:23:40.993Z,5.10
2023-02-16T19:26:11.206Z,2.15
2023-02-16T19:28:38.907Z,2.55
2023-02-16T19:31:08.733Z,3.55
2023-02-16T19:33:35.925Z,3.50
2023-02-16T19:36:08.268Z,1.88
2023-02-16T19:38:35.136Z,3.50
2023-02-16T19:41:08.880Z,0.75
2023-02-16T19:43:35.685Z,3.28
2023-02-16T19:46:04.340Z,3.20
2023-02-16T19:48:31.782Z,2.33
2023-02-16T19:50:59.811Z,1.70
2023-02-16T19:53:27.291Z,2.88
2023-02-16T19:55:54.850Z,1.50
2023-02-16T19:58:22.914Z,2.03
2023-02-16T20:00:50.413Z,2.00
2023-02-16T20:03:18.127Z,3.22
2023-02-16T20:05:45.123Z,2.28
2023-02-16T20:08:12.050Z,2.42
2023-02-16T20:10:45.189Z,1.42
2023-02-16T20:13:11.946Z,1.65
2023-02-16T20:15:38.903Z,1.42
2023-02-16T20:18:07.389Z,0.95
2023-02-16T20:20:35.609Z,3.75
2023-02-16T20:23:02.523Z,2.53
2023-02-16T20:25:29.544Z,1.20
2023-02-16T20:27:56.807Z,1.00
2023-02-16T20:30:25.347Z,1.83
2023-02-16T20:32:52.236Z,1.90
2023-02-16T20:35:18.940Z,2.38
2023-02-16T20:37:46.027Z,2.47
2023-02-16T20:40:14.104Z,2.72
2023-02-16T20:42:40.956Z,1.60
2023-02-16T20:45:09.104Z,7.28
2023-02-16T20:47:36.168Z,2.95
2023-02-16T20:50:02.911Z,1.52
2023-02-16T20:52:29.632Z,2.28
2023-02-16T20:54:56.577Z,1.08
2023-02-16T20:57:27.030Z,2.08
2023-02-16T20:59:55.358Z,2.05
2023-02-16T21:02:22.316Z,0.90
2023-02-16T21:04:49.078Z,1.10
2023-02-16T21:07:15.989Z,8.30
2023-02-16T21:09:42.878Z,1.83
2023-02-16T21:12:09.909Z,0.70
2023-02-16T21:14:36.643Z,1.05
2023-02-16T21:17:03.510Z,0.55
2023-02-16T21:19:30.563Z,1.00
2023-02-16T21:21:57.778Z,3.42
2023-02-16T21:24:25.537Z,0.98
2023-02-16T21:26:52.261Z,1.02
2023-02-16T21:29:19.008Z,3.00
2023-02-16T21:31:45.866Z,2.33
2023-02-16T21:34:12.714Z,0.80
2023-02-16T21:36:39.609Z,0.50
2023-02-16T21:39:09.056Z,0.90
2023-02-16T21:41:37.362Z,1.85
2023-02-16T21:44:04.089Z,3.05
2023-02-16T21:46:39.495Z,2.67
2023-02-16T21:49:08.749Z,2.33
2023-02-16T21:51:37.851Z,2.65
2023-02-16T21:54:09.820Z,2.45
2023-02-16T21:56:40.796Z,0.60
2023-02-16T21:59:13.375Z,3.90
2023-02-16T22:01:48.316Z,3.38
2023-02-16T22:04:17.607Z,0.90
2023-02-16T22:06:46.477Z,1.95
2023-02-16T22:09:17.513Z,2.05
2023-02-16T22:11:45.341Z,2.92
2023-02-16T22:14:12.780Z,0.80
2023-02-16T22:16:39.949Z,0.77
2023-02-16T22:19:11.046Z,0.90
2023-02-16T22:21:43.274Z,2.10
2023-02-16T22:24:14.536Z,2.20
2023-02-16T22:26:41.421Z,3.37
2023-02-16T22:29:09.147Z,2.45
2023-02-16T22:31:36.949Z,1.45
2023-02-16T22:34:06.944Z,2.88
2023-02-16T22:36:34.436Z,1.05
2023-02-16T22:39:01.251Z,1.35
2023-02-16T22:41:28.650Z,0.47
2023-02-16T22:43:57.318Z,2.58
2023-02-16T22:46:24.753Z,0.40
2023-02-16T22:48:52.425Z,0.52
2023-02-16T22:51:20.862Z,0.60
2023-02-16T22:53:48.612Z,1.42
2023-02-16T22:56:17.826Z,0.93
2023-02-16T22:58:44.783Z,1.67
2023-02-16T23:01:15.088Z,0.50
2023-02-16T23:03:42.966Z,0.70
2023-02-16T23:06:15.213Z,1.20
2023-02-16T23:11:09.435Z,0.43
2023-02-16T23:13:36.706Z,0.47
2023-02-16T23:16:10.831Z,2.20
2023-02-16T23:18:38.568Z,3.03
2023-02-16T23:21:11.024Z,0.90
2023-02-16T23:23:37.913Z,2.30
2023-02-16T23:26:06.801Z,1.15
2023-02-16T23:28:35.222Z,0.70
2023-02-16T23:31:02.686Z,0.88
2023-02-16T23:33:29.961Z,1.08
2023-02-16T23:35:57.101Z,1.85
2023-02-16T23:38:25.182Z,0.90
2023-02-16T23:41:06.636Z,4.80
2023-02-16T23:43:33.675Z,1.13
2023-02-16T23:46:01.680Z,0.60
2023-02-16T23:48:29.063Z,1.48
2023-02-16T23:50:57.125Z,3.90
2023-02-16T23:53:26.012Z,1.90
2023-02-16T23:56:05.529Z,1.65
2023-02-16T23:58:42.096Z,2.42
